Time;durP1;ratioP1;P1;durP2;ratioP2;P2;SDS_P1;SDS_P2;PMS_P1;PMS_P2;Temp;Humidity;BMP_temperature;BMP_pressure;BME280_temperature;BME280_humidity;BME280_pressure;Samples;Min_cycle;Max_cycle;Signal;HPM_P1;HPM_P2
2023/10/30 00:01:29;;;;;;;1.00;1.00;;;;;;;18.55;55.53;97621.88;104039;1280;65850;-43
2023/10/30 00:03:55;;;;;;;1.50;1.00;;;;;;;18.56;55.46;97630.94;103985;1280;72601;-43
2023/10/30 00:06:22;;;;;;;1.90;1.00;;;;;;;18.55;55.44;97629.38;103992;1280;62085;-43
2023/10/30 00:08:49;;;;;;;1.00;0.80;;;;;;;18.55;55.46;97626.75;103904;1277;62116;-42
2023/10/30 00:11:16;;;;;;;0.80;0.80;;;;;;;18.54;55.47;97623.01;103980;1279;76016;-42
2023/10/30 00:13:42;;;;;;;1.10;1.00;;;;;;;18.54;55.43;97622.84;103825;1278;64504;-43
2023/10/30 00:16:10;;;;;;;2.20;1.10;;;;;;;18.54;55.33;97620.98;103997;1280;72705;-43
2023/10/30 00:18:39;;;;;;;1.30;1.10;;;;;;;18.53;55.33;97616.32;103785;1277;62094;-43
2023/10/30 00:21:05;;;;;;;1.20;1.10;;;;;;;18.53;55.29;97609.73;103879;1280;62098;-43
2023/10/30 00:23:32;;;;;;;1.00;0.80;;;;;;;18.52;55.42;97609.47;103808;1283;76099;-43
2023/10/30 00:25:59;;;;;;;3.50;1.20;;;;;;;18.52;55.46;97608.76;103949;1280;65345;-43
2023/10/30 00:28:27;;;;;;;1.20;1.10;;;;;;;18.51;55.44;97607.91;103993;1277;72530;-43
2023/10/30 00:30:54;;;;;;;1.70;1.10;;;;;;;18.51;55.44;97608.83;104018;1280;62088;-41
2023/10/30 00:33:21;;;;;;;1.30;1.10;;;;;;;18.51;55.43;97608.05;103822;1277;62106;-42
2023/10/30 00:35:47;;;;;;;1.40;1.20;;;;;;;18.51;55.46;97606.81;103770;1282;75440;-42
2023/10/30 00:38:15;;;;;;;1.10;1.00;;;;;;;18.50;55.53;97609.27;103712;1280;66285;-42
2023/10/30 00:40:42;;;;;;;1.00;0.80;;;;;;;18.50;55.44;97610.90;103945;1279;73029;-42
2023/10/30 00:43:08;;;;;;;1.30;1.00;;;;;;;18.50;55.42;97605.16;103719;1280;62091;-43
2023/10/30 00:45:35;;;;;;;0.90;0.90;;;;;;;18.49;55.50;97603.29;104046;1280;62073;-43
2023/10/30 00:48:02;;;;;;;1.20;1.00;;;;;;;18.50;55.45;97606.80;104096;1283;75109;-42
2023/10/30 00:50:32;;;;;;;1.10;0.90;;;;;;;18.49;55.41;97602.27;104325;1280;65942;-42
2023/10/30 00:53:00;;;;;;;1.10;1.00;;;;;;;18.49;55.40;97601.88;103810;1281;72676;-42
2023/10/30 00:55:27;;;;;;;1.50;0.90;;;;;;;18.49;55.45;97597.94;103729;1280;62113;-42
2023/10/30 00:57:53;;;;;;;1.00;0.90;;;;;;;18.49;55.45;97594.12;103776;1280;62202;-42
2023/10/30 01:00:20;;;;;;;1.00;0.90;;;;;;;18.48;55.37;97596.59;103755;1284;75337;-42
2023/10/30 01:02:46;;;;;;;1.30;1.20;;;;;;;18.48;55.54;97592.56;103886;1282;66163;-41
2023/10/30 01:05:14;;;;;;;1.10;1.00;;;;;;;18.48;55.48;97593.88;103954;1280;72904;-40
2023/10/30 01:07:41;;;;;;;1.20;1.10;;;;;;;18.48;55.46;97591.46;103765;1283;62094;-42
2023/10/30 01:10:08;;;;;;;1.90;0.90;;;;;;;18.48;55.42;97590.77;103911;1280;62196;-43
2023/10/30 01:12:34;;;;;;;1.40;1.10;;;;;;;18.47;55.48;97584.32;103981;1280;75146;-42
2023/10/30 01:15:03;;;;;;;1.10;1.00;;;;;;;18.47;55.46;97585.79;103944;1283;65437;-43
2023/10/30 01:17:30;;;;;;;1.20;1.00;;;;;;;18.47;55.37;97587.80;103982;1280;72385;-43
2023/10/30 01:20:02;;;;;;;1.10;1.10;;;;;;;18.47;55.52;97588.04;103752;1280;62188;-43
2023/10/30 01:22:29;;;;;;;1.10;0.90;;;;;;;18.47;55.50;97587.10;103822;1278;62085;-42
2023/10/30 01:24:56;;;;;;;1.00;0.80;;;;;;;18.46;55.44;97585.45;103768;1280;75404;-42
2023/10/30 01:27:23;;;;;;;1.10;1.00;;;;;;;18.47;55.54;97590.03;103855;1280;66070;-42
2023/10/30 01:29:50;;;;;;;1.10;1.00;;;;;;;18.46;55.44;97589.58;103877;1278;72523;-43
2023/10/30 01:32:17;;;;;;;1.00;0.90;;;;;;;18.46;55.52;97592.50;103805;1280;62189;-43
2023/10/30 01:34:44;;;;;;;1.10;0.80;;;;;;;18.46;55.42;97594.20;103797;1278;62149;-43
2023/10/30 01:37:11;;;;;;;2.00;0.90;;;;;;;18.45;55.50;97589.13;104019;1280;75898;-43
2023/10/30 01:39:37;;;;;;;1.00;0.90;;;;;;;18.45;55.49;97594.02;103992;1291;66168;-43
2023/10/30 01:42:04;;;;;;;1.20;0.90;;;;;;;18.45;55.50;97592.33;103992;1280;72612;-43
2023/10/30 01:44:31;;;;;;;1.60;1.20;;;;;;;18.46;55.50;97589.31;103975;1276;62120;-43
2023/10/30 01:46:57;;;;;;;1.10;1.00;;;;;;;18.46;55.52;97583.42;104010;1283;62159;-43
2023/10/30 01:49:25;;;;;;;1.20;1.10;;;;;;;18.45;55.50;97584.41;103932;1277;75370;-42
2023/10/30 01:51:51;;;;;;;1.50;1.00;;;;;;;18.44;55.48;97583.30;103735;1278;66541;-43
2023/10/30 01:54:18;;;;;;;2.40;1.00;;;;;;;18.44;55.46;97590.73;103864;1283;71964;-43
2023/10/30 01:56:45;;;;;;;1.20;1.10;;;;;;;18.44;55.48;97587.42;103975;1283;62094;-43
2023/10/30 01:59:12;;;;;;;1.40;1.10;;;;;;;18.44;55.51;97588.11;103853;1283;62204;-42
2023/10/30 02:01:38;;;;;;;1.00;0.90;;;;;;;18.44;55.43;97590.27;103675;1282;75383;-42
2023/10/30 02:04:05;;;;;;;1.10;1.00;;;;;;;18.44;55.44;97590.74;103716;1286;66094;-42
2023/10/30 02:06:32;;;;;;;1.20;1.10;;;;;;;18.43;55.48;97591.20;103782;1288;72637;-43
2023/10/30 02:09:00;;;;;;;1.80;0.90;;;;;;;18.44;55.53;97589.73;103855;1281;62075;-43
2023/10/30 02:11:26;;;;;;;1.00;0.90;;;;;;;18.44;55.42;97587.41;103874;1283;62203;-43
2023/10/30 02:13:55;;;;;;;1.20;1.10;;;;;;;18.44;55.42;97588.58;103997;1278;75239;-43
2023/10/30 02:16:21;;;;;;;1.80;1.20;;;;;;;18.44;55.50;97594.45;104104;1276;64692;-41
2023/10/30 02:18:48;;;;;;;1.50;1.00;;;;;;;18.44;55.47;97593.13;103988;1280;72696;-42
2023/10/30 02:21:17;;;;;;;1.00;1.00;;;;;;;18.44;55.49;97588.71;103949;1282;62036;-42
2023/10/30 02:23:43;;;;;;;0.90;0.80;;;;;;;18.43;55.48;97584.44;104137;1283;62120;-44
2023/10/30 02:26:12;;;;;;;1.50;1.00;;;;;;;18.43;55.49;97579.56;107543;1277;74280;-42
2023/10/30 02:28:39;;;;;;;1.10;1.00;;;;;;;18.43;55.47;97578.00;107260;1276;61216;-42
2023/10/30 02:31:06;;;;;;;1.00;0.80;;;;;;;18.44;55.50;97578.33;106717;1277;59641;-43
2023/10/30 02:33:33;;;;;;;1.00;0.90;;;;;;;18.45;55.50;97581.15;103833;1277;61973;-42
2023/10/30 02:35:59;;;;;;;1.20;1.10;;;;;;;18.46;55.44;97577.02;104029;1277;62200;-42
2023/10/30 02:38:26;;;;;;;1.00;0.90;;;;;;;18.46;55.45;97571.28;103972;1282;75447;-42
2023/10/30 02:40:53;;;;;;;0.80;0.70;;;;;;;18.47;55.40;97574.40;104024;1283;65756;-42
2023/10/30 02:43:19;;;;;;;0.90;0.80;;;;;;;18.47;55.36;97573.40;103804;1282;72613;-42
2023/10/30 02:45:46;;;;;;;1.20;0.90;;;;;;;18.47;55.44;97575.17;103735;1282;62168;-40
2023/10/30 02:48:13;;;;;;;0.70;0.70;;;;;;;18.47;55.40;97577.49;103712;1281;62201;-41
2023/10/30 02:50:39;;;;;;;0.80;0.80;;;;;;;18.47;55.33;97576.64;103549;1279;75482;-42
2023/10/30 02:53:06;;;;;;;1.10;1.00;;;;;;;18.47;55.37;97574.86;103801;1287;62102;-42
2023/10/30 02:55:32;;;;;;;1.30;1.10;;;;;;;18.47;55.44;97576.65;103994;1280;72687;-42
2023/10/30 02:57:59;;;;;;;1.10;1.00;;;;;;;18.46;55.39;97579.27;103993;1281;62069;-43
2023/10/30 03:00:25;;;;;;;1.20;1.10;;;;;;;18.46;55.32;97582.06;103981;1280;62097;-43
2023/10/30 03:02:52;;;;;;;1.20;1.00;;;;;;;18.45;55.40;97580.55;103911;1277;62153;-43
2023/10/30 03:05:19;;;;;;;1.00;1.00;;;;;;;18.45;55.41;97581.30;103949;1283;66179;-42
2023/10/30 03:07:45;;;;;;;0.80;0.80;;;;;;;18.45;55.28;97581.30;103762;1280;72892;-42
2023/10/30 03:10:12;;;;;;;1.20;0.90;;;;;;;18.45;55.32;97580.98;103742;1290;62116;-42
2023/10/30 03:12:38;;;;;;;1.40;0.90;;;;;;;18.45;55.26;97580.46;103784;1284;62139;-42
2023/10/30 03:15:06;;;;;;;0.70;0.70;;;;;;;18.45;55.28;97579.43;103955;1282;75454;-42
2023/10/30 03:17:33;;;;;;;1.00;0.90;;;;;;;18.44;55.39;97580.91;104047;1280;65702;-41
2023/10/30 03:20:00;;;;;;;0.80;0.70;;;;;;;18.44;55.44;97581.29;103743;1277;72450;-42
2023/10/30 03:22:26;;;;;;;1.50;1.20;;;;;;;18.44;55.32;97580.13;103921;1280;62030;-43
2023/10/30 03:24:53;;;;;;;1.10;0.90;;;;;;;18.44;55.39;97580.37;103910;1277;62203;-43
2023/10/30 03:27:20;;;;;;;1.10;1.00;;;;;;;18.44;55.41;97580.98;103883;1289;75535;-43
2023/10/30 03:29:46;;;;;;;1.50;0.90;;;;;;;18.44;55.34;97580.13;103791;1280;65764;-42
2023/10/30 03:32:13;;;;;;;1.00;0.90;;;;;;;18.43;55.36;97580.58;103940;1277;72625;-42
2023/10/30 03:34:40;;;;;;;0.90;0.90;;;;;;;18.43;55.31;97582.27;103872;1283;62080;-42
2023/10/30 03:37:08;;;;;;;1.00;0.90;;;;;;;18.43;55.29;97584.67;103943;1277;62103;-42
2023/10/30 03:39:35;;;;;;;1.00;0.80;;;;;;;18.43;55.31;97583.96;103919;1282;75545;-41
2023/10/30 03:42:01;;;;;;;0.90;0.80;;;;;;;18.43;55.38;97585.52;103891;1280;66182;-42
2023/10/30 03:44:29;;;;;;;1.50;1.10;;;;;;;18.43;55.37;97581.20;103852;1280;72426;-42
2023/10/30 03:46:55;;;;;;;1.20;0.90;;;;;;;18.43;55.35;97580.55;103982;1280;62095;-42
2023/10/30 03:49:23;;;;;;;0.80;0.80;;;;;;;18.43;55.29;97578.45;104024;1280;62182;-42
2023/10/30 03:51:50;;;;;;;0.80;0.80;;;;;;;18.42;55.42;97570.38;103859;1280;75873;-42
2023/10/30 03:54:17;;;;;;;1.00;0.90;;;;;;;18.42;55.33;97571.46;103802;1280;65620;-42
2023/10/30 03:56:43;;;;;;;1.00;0.70;;;;;;;18.42;55.42;97570.22;103720;1284;72651;-42
2023/10/30 03:59:10;;;;;;;1.20;0.90;;;;;;;18.41;55.37;97565.27;103829;1282;62100;-42
2023/10/30 04:01:38;;;;;;;0.90;0.90;;;;;;;18.42;55.36;97566.89;104045;1280;62177;-42
2023/10/30 04:04:05;;;;;;;1.00;0.90;;;;;;;18.42;55.41;97568.52;103955;1283;75134;-42
2023/10/30 04:06:32;;;;;;;0.90;0.90;;;;;;;18.42;55.35;97565.03;103939;1280;65293;-42
2023/10/30 04:08:58;;;;;;;1.00;0.90;;;;;;;18.43;55.39;97566.52;103717;1277;72453;-42
2023/10/30 04:11:25;;;;;;;1.10;0.90;;;;;;;18.42;55.34;97562.09;103886;1280;62079;-42
2023/10/30 04:13:51;;;;;;;1.40;1.00;;;;;;;18.42;55.34;97569.91;103758;1281;62248;-43
2023/10/30 04:16:20;;;;;;;0.90;0.90;;;;;;;18.42;55.42;97566.50;104030;1278;62162;-44
2023/10/30 04:18:47;;;;;;;0.80;0.80;;;;;;;18.42;55.39;97564.48;103891;1280;66123;-43
2023/10/30 04:21:13;;;;;;;0.90;0.80;;;;;;;18.42;55.38;97564.71;104007;1278;72422;-43
2023/10/30 04:23:42;;;;;;;1.20;0.90;;;;;;;18.42;55.30;97562.87;103867;1280;62184;-43
2023/10/30 04:26:09;;;;;;;1.00;0.90;;;;;;;18.42;55.36;97561.30;103829;1277;62170;-43
2023/10/30 04:28:36;;;;;;;0.60;0.60;;;;;;;18.41;55.41;97561.92;103849;1283;75388;-42
2023/10/30 04:31:04;;;;;;;1.00;0.90;;;;;;;18.41;55.36;97563.94;103997;1276;66085;-43
2023/10/30 04:33:30;;;;;;;1.10;0.90;;;;;;;18.41;55.34;97558.59;103740;1277;72513;-43
2023/10/30 04:36:01;;;;;;;1.00;0.80;;;;;;;18.40;55.33;97557.79;104013;1280;62101;-43
2023/10/30 04:38:30;;;;;;;1.30;0.90;;;;;;;18.41;55.38;97558.82;104011;1276;62129;-43
2023/10/30 04:40:58;;;;;;;0.80;0.80;;;;;;;18.40;55.30;97556.94;103894;1280;75348;-43
2023/10/30 04:43:24;;;;;;;1.00;0.90;;;;;;;18.41;55.32;97555.55;103844;1277;65996;-42
2023/10/30 04:45:51;;;;;;;1.10;0.90;;;;;;;18.41;55.40;97560.76;104001;1277;72666;-42
2023/10/30 04:48:18;;;;;;;0.90;0.80;;;;;;;18.41;55.41;97561.45;103778;1282;62111;-42
2023/10/30 04:50:45;;;;;;;0.90;0.80;;;;;;;18.41;55.38;97560.45;104002;1278;62206;-42
2023/10/30 04:53:11;;;;;;;1.00;0.70;;;;;;;18.40;55.35;97558.56;104008;1280;75299;-42
2023/10/30 04:55:38;;;;;;;0.80;0.80;;;;;;;18.40;55.38;97555.14;103915;1277;66125;-42
2023/10/30 04:58:05;;;;;;;0.80;0.80;;;;;;;18.40;55.32;97554.61;103960;1280;72466;-42
2023/10/30 05:00:31;;;;;;;0.80;0.80;;;;;;;18.40;55.28;97556.71;104222;1283;62107;-42
2023/10/30 05:02:58;;;;;;;1.70;0.90;;;;;;;18.41;55.33;97556.41;104720;1277;62111;-42
2023/10/30 05:05:26;;;;;;;1.10;0.80;;;;;;;18.40;55.31;97559.11;106801;1276;74280;-42
2023/10/30 05:07:53;;;;;;;0.90;0.80;;;;;;;18.40;55.37;97562.42;107305;1276;65117;-43
2023/10/30 05:10:19;;;;;;;1.00;0.80;;;;;;;18.41;55.35;97563.55;106453;1280;71218;-43
2023/10/30 05:12:46;;;;;;;1.20;0.90;;;;;;;18.42;55.37;97567.44;104304;1280;62065;-43
2023/10/30 05:15:13;;;;;;;0.90;0.80;;;;;;;18.42;55.30;97566.42;103879;1277;62167;-42
2023/10/30 05:17:40;;;;;;;1.00;0.80;;;;;;;18.43;55.36;97567.06;103917;1280;75440;-42
2023/10/30 05:20:07;;;;;;;0.80;0.70;;;;;;;18.44;55.29;97573.69;103891;1280;66292;-43
2023/10/30 05:22:34;;;;;;;1.30;0.80;;;;;;;18.44;55.26;97575.24;103901;1277;72344;-41
2023/10/30 05:25:05;;;;;;;2.20;0.90;;;;;;;18.44;55.19;97569.11;103694;1280;62072;-43
2023/10/30 05:27:32;;;;;;;0.90;0.80;;;;;;;18.43;55.22;97574.08;103776;1276;62114;-42
2023/10/30 05:29:59;;;;;;;0.90;0.90;;;;;;;18.43;55.22;97578.48;103858;1280;75045;-43
2023/10/30 05:32:25;;;;;;;0.90;0.90;;;;;;;18.44;55.20;97578.89;103934;1280;66074;-43
2023/10/30 05:34:52;;;;;;;1.10;0.90;;;;;;;18.44;55.27;97585.31;103853;1280;73682;-43
2023/10/30 05:37:19;;;;;;;0.70;0.70;;;;;;;18.44;55.18;97580.52;103913;1280;62078;-42
2023/10/30 05:39:46;;;;;;;0.90;0.90;;;;;;;18.43;55.13;97581.48;103887;1280;62168;-43
2023/10/30 05:42:13;;;;;;;1.20;0.90;;;;;;;18.43;55.26;97583.26;103923;1280;75430;-42
2023/10/30 05:44:40;;;;;;;1.10;0.90;;;;;;;18.42;55.26;97586.20;103950;1280;66146;-43
2023/10/30 05:47:07;;;;;;;1.10;1.00;;;;;;;18.42;55.20;97587.52;103890;1278;72660;-42
2023/10/30 05:49:34;;;;;;;0.80;0.70;;;;;;;18.42;55.30;97589.99;103958;1280;62117;-42
2023/10/30 05:52:01;;;;;;;0.70;0.70;;;;;;;18.43;55.24;97591.94;103772;1278;62120;-43
2023/10/30 05:54:28;;;;;;;1.00;0.90;;;;;;;18.42;55.19;97594.71;103761;1280;74056;-42
2023/10/30 05:56:54;;;;;;;1.50;1.00;;;;;;;18.42;55.20;97599.29;103719;1282;65665;-42
2023/10/30 05:59:23;;;;;;;1.40;0.90;;;;;;;18.42;55.18;97600.50;103795;1278;71796;-42
2023/10/30 06:01:49;;;;;;;1.50;1.00;;;;;;;18.42;55.25;97602.29;103925;1284;62093;-44
2023/10/30 06:04:16;;;;;;;0.80;0.80;;;;;;;18.41;55.24;97603.14;103859;1276;62187;-43
2023/10/30 06:06:43;;;;;;;1.70;0.90;;;;;;;18.41;55.14;97604.69;104033;1279;75232;-42
2023/10/30 06:09:09;;;;;;;1.10;0.90;;;;;;;18.40;55.29;97606.05;103760;1280;62097;-41
2023/10/30 06:11:36;;;;;;;3.30;0.90;;;;;;;18.40;55.19;97607.84;103798;1277;72945;-41
2023/10/30 06:14:03;;;;;;;1.60;0.90;;;;;;;18.40;55.20;97610.08;103822;1280;62056;-44
2023/10/30 06:16:30;;;;;;;1.40;0.90;;;;;;;18.41;55.24;97610.34;103884;1277;62081;-41
2023/10/30 06:18:56;;;;;;;2.90;0.90;;;;;;;18.41;55.32;97610.19;103732;1280;74276;-43
2023/10/30 06:21:23;;;;;;;1.30;0.80;;;;;;;18.42;55.32;97610.27;103750;1278;66321;-43
2023/10/30 06:23:50;;;;;;;2.80;0.90;;;;;;;18.42;55.32;97611.98;103764;1276;73975;-41
2023/10/30 06:26:17;;;;;;;2.80;0.90;;;;;;;18.42;55.46;97614.46;103844;1280;62092;-40
2023/10/30 06:28:44;;;;;;;0.90;0.80;;;;;;;18.43;55.53;97614.79;103596;1277;62080;-41
2023/10/30 06:31:17;;;;;;;2.60;0.70;;;;;;;18.43;55.62;97613.80;103839;1276;76337;-42
2023/10/30 06:39:08;;;;;;;5.50;1.30;;;;;;;18.46;55.91;97616.60;103891;1280;72827;-44
2023/10/30 06:41:35;;;;;;;2.10;1.10;;;;;;;18.49;56.15;97616.28;103749;1282;62110;-48
2023/10/30 06:44:01;;;;;;;3.50;0.80;;;;;;;18.53;56.31;97616.39;103958;1276;62014;-40
2023/10/30 06:46:28;;;;;;;4.50;0.90;;;;;;;18.57;56.44;97619.75;103920;1280;75296;-45
2023/10/30 06:48:55;;;;;;;1.30;1.00;;;;;;;18.61;56.45;97617.50;103851;1280;65090;-49
2023/10/30 06:51:22;;;;;;;2.10;1.00;;;;;;;18.64;56.57;97616.89;103728;1277;72818;-44
2023/10/30 06:53:49;;;;;;;1.10;0.80;;;;;;;18.68;56.46;97621.86;103606;1277;62234;-44
2023/10/30 06:56:16;;;;;;;0.90;0.70;;;;;;;18.70;56.56;97621.91;103885;1276;62215;-45
2023/10/30 06:58:42;;;;;;;3.50;0.90;;;;;;;18.73;56.51;97617.66;103894;1279;76240;-42
2023/10/30 07:01:09;;;;;;;3.60;1.10;;;;;;;18.75;56.55;97616.53;103936;1280;65688;-42
2023/10/30 07:03:36;;;;;;;2.10;0.80;;;;;;;18.76;56.60;97617.19;104419;1277;72919;-43
2023/10/30 07:06:04;;;;;;;3.40;1.00;;;;;;;18.75;56.54;97616.69;103892;1277;62859;-44
2023/10/30 07:08:32;;;;;;;1.80;1.10;;;;;;;18.73;56.53;97613.48;103826;1277;62404;-44
2023/10/30 07:11:02;;;;;;;1.40;0.80;;;;;;;18.72;56.41;97617.24;103837;1280;74269;-43
2023/10/30 07:13:29;;;;;;;1.10;0.90;;;;;;;18.70;56.38;97611.52;103615;1283;66053;-45
2023/10/30 07:15:56;;;;;;;4.00;1.30;;;;;;;18.69;56.35;97610.34;103651;1278;73089;-40
2023/10/30 07:18:23;;;;;;;3.30;1.10;;;;;;;18.68;56.38;97608.23;103706;1280;62068;-41
2023/10/30 07:20:49;;;;;;;2.80;0.90;;;;;;;18.70;56.41;97606.34;103688;1280;62091;-41
2023/10/30 07:23:16;;;;;;;3.30;1.00;;;;;;;18.71;56.43;97607.08;103824;1280;76057;-40
2023/10/30 07:25:49;;;;;;;3.50;1.40;;;;;;;18.75;56.85;97610.64;103775;1277;65772;-41
2023/10/30 07:28:19;;;;;;;79.30;5.90;;;;;;;18.78;57.53;97608.17;103442;1277;72564;-46
2023/10/30 07:30:46;;;;;;;111.00;6.20;;;;;;;18.84;57.48;97608.61;103832;1280;62148;-48
2023/10/30 07:33:13;;;;;;;168.50;8.90;;;;;;;18.91;57.33;97603.19;103900;1277;62273;-41
2023/10/30 07:35:40;;;;;;;175.20;8.60;;;;;;;18.99;57.41;97602.98;103598;1276;75839;-40
2023/10/30 07:38:07;;;;;;;138.70;8.20;;;;;;;19.03;57.59;97604.56;103901;1280;65765;-41
2023/10/30 07:40:34;;;;;;;127.30;7.20;;;;;;;19.07;57.64;97603.02;104185;1280;72883;-42
2023/10/30 07:43:00;;;;;;;97.80;5.90;;;;;;;19.08;57.50;97603.27;104909;1276;62149;-43
2023/10/30 07:45:27;;;;;;;106.90;7.10;;;;;;;19.09;57.43;97608.27;106821;1276;59736;-41
2023/10/30 07:47:54;;;;;;;63.70;5.00;;;;;;;19.11;57.34;97605.81;106457;1276;76029;-41
2023/10/30 07:50:22;;;;;;;63.30;4.90;;;;;;;19.11;57.12;97609.77;104390;1277;65606;-40
2023/10/30 07:52:49;;;;;;;64.50;4.40;;;;;;;19.14;57.21;97611.45;103731;1278;71917;-40
2023/10/30 07:55:16;;;;;;;48.90;4.00;;;;;;;19.16;57.09;97610.33;103699;1280;62088;-39
2023/10/30 07:57:42;;;;;;;35.60;3.70;;;;;;;19.18;57.15;97611.53;103738;1277;62213;-41
2023/10/30 08:00:11;;;;;;;38.50;3.40;;;;;;;19.19;57.16;97611.65;103740;1277;75276;-39
2023/10/30 08:02:41;;;;;;;35.80;3.30;;;;;;;19.20;57.26;97615.06;103751;1277;65707;-40
2023/10/30 08:05:08;;;;;;;40.90;3.40;;;;;;;19.20;57.16;97616.31;103499;1276;72638;-47
2023/10/30 08:07:36;;;;;;;44.40;3.70;;;;;;;19.21;57.10;97617.27;103570;1283;62085;-42
2023/10/30 08:10:05;;;;;;;30.40;3.10;;;;;;;19.23;57.44;97620.11;103902;1277;62103;-44
2023/10/30 08:12:33;;;;;;;26.10;3.20;;;;;;;19.27;57.42;97624.23;103374;1283;76150;-42
2023/10/30 08:15:00;;;;;;;34.90;3.60;;;;;;;19.32;57.79;97623.08;103709;1280;65801;-43
2023/10/30 08:17:29;;;;;;;29.00;2.80;;;;;;;19.34;58.07;97629.95;103703;1280;72523;-43
2023/10/30 08:19:55;;;;;;;22.90;2.50;;;;;;;19.36;58.18;97629.18;103729;1277;62033;-41
2023/10/30 08:22:22;;;;;;;23.80;2.80;;;;;;;19.39;58.13;97630.18;103637;1282;62251;-43
2023/10/30 08:24:49;;;;;;;15.10;2.20;;;;;;;19.42;58.19;97626.05;103602;1279;75277;-42
2023/10/30 08:27:16;;;;;;;19.30;2.30;;;;;;;19.45;58.08;97625.42;103819;1280;65206;-40
2023/10/30 08:29:43;;;;;;;17.80;2.80;;;;;;;19.47;58.26;97626.24;103868;1278;72621;-45
2023/10/30 08:32:10;;;;;;;39.60;3.20;;;;;;;19.50;58.25;97628.63;103612;1285;62085;-42
2023/10/30 08:34:37;;;;;;;17.90;2.70;;;;;;;19.51;58.49;97628.98;103852;1277;62165;-41
2023/10/30 08:37:03;;;;;;;24.90;2.70;;;;;;;19.54;58.46;97626.15;103499;1276;74268;-42
2023/10/30 08:39:30;;;;;;;25.40;2.60;;;;;;;19.56;58.35;97619.77;103745;1279;66594;-40
2023/10/30 08:41:57;;;;;;;22.60;2.00;;;;;;;19.59;58.49;97621.91;103707;1276;72568;-40
2023/10/30 08:44:24;;;;;;;22.40;2.50;;;;;;;19.61;58.47;97623.66;103746;1280;62834;-42
2023/10/30 08:46:54;;;;;;;22.40;2.50;;;;;;;19.62;58.44;97629.73;103647;1277;62139;-41
2023/10/30 08:49:21;;;;;;;17.10;2.30;;;;;;;19.64;58.52;97627.52;103733;1278;74246;-39
2023/10/30 08:51:48;;;;;;;12.70;2.00;;;;;;;19.65;58.44;97625.30;103621;1276;283259;-42
2023/10/30 08:54:30;;;;;;;16.60;2.50;;;;;;;19.67;58.46;97622.30;103784;1276;72579;-41
2023/10/30 08:56:56;;;;;;;13.10;1.90;;;;;;;19.67;58.40;97621.92;103815;1280;62076;-42
2023/10/30 08:59:38;;;;;;;11.60;2.10;;;;;;;19.69;58.46;97622.58;103954;1279;62171;-42
2023/10/30 09:02:08;;;;;;;15.40;1.70;;;;;;;19.70;58.46;97622.84;103572;1283;75292;-41
2023/10/30 09:04:36;;;;;;;11.70;1.90;;;;;;;19.71;58.35;97621.94;103635;1283;66280;-48
2023/10/30 09:07:03;;;;;;;13.60;2.10;;;;;;;19.75;58.44;97620.05;103801;1277;72498;-48
2023/10/30 09:09:32;;;;;;;10.20;2.00;;;;;;;19.80;58.61;97618.45;103827;1277;62119;-48
2023/10/30 09:12:00;;;;;;;9.70;2.10;;;;;;;19.84;58.57;97619.92;103893;1277;62107;-50
2023/10/30 09:14:27;;;;;;;16.20;2.10;;;;;;;19.87;58.60;97618.13;103767;1280;75284;-48
2023/10/30 09:16:53;;;;;;;9.50;2.00;;;;;;;19.90;58.50;97619.02;103835;1277;66583;-48
2023/10/30 09:19:20;;;;;;;12.80;2.00;;;;;;;19.93;58.49;97615.52;103776;1277;72700;-51
2023/10/30 09:21:50;;;;;;;7.10;1.70;;;;;;;19.94;58.48;97616.69;103972;1278;61226;-44
2023/10/30 09:24:19;;;;;;;8.60;1.60;;;;;;;19.96;58.43;97615.43;103856;1279;62030;-42
2023/10/30 09:26:47;;;;;;;4.60;1.40;;;;;;;19.98;58.45;97607.30;104022;1279;75331;-43
2023/10/30 09:29:15;;;;;;;12.00;1.70;;;;;;;20.01;58.54;97611.25;103898;1277;67078;-41
2023/10/30 09:31:44;;;;;;;10.40;1.60;;;;;;;20.03;58.37;97610.90;103204;1280;72917;-43
2023/10/30 09:34:12;;;;;;;6.50;1.50;;;;;;;20.06;58.16;97612.49;103405;1278;62439;-43
2023/10/30 09:36:39;;;;;;;6.70;1.70;;;;;;;20.08;58.17;97613.86;103665;1282;62889;-41
2023/10/30 09:39:07;;;;;;;8.10;1.90;;;;;;;20.10;58.33;97613.42;103904;1276;75499;-42
2023/10/30 09:41:43;;;;;;;7.80;1.40;;;;;;;20.11;58.30;97612.91;103868;1276;66151;-41
2023/10/30 09:44:10;;;;;;;;;;;;;;;20.14;57.99;97611.00;103884;1276;73670;-38
2023/10/30 09:46:39;;;;;;;5.20;1.50;;;;;;;20.15;57.71;97611.98;104177;1277;62193;-41
2023/10/30 09:49:13;;;;;;;9.60;1.70;;;;;;;20.18;57.56;97609.61;103927;1276;62088;-44
2023/10/30 09:51:42;;;;;;;4.50;1.20;;;;;;;20.21;57.56;97609.05;103738;1283;75381;-41
2023/10/30 09:54:10;;;;;;;5.00;1.30;;;;;;;20.24;57.44;97607.42;103538;1278;65945;-40
2023/10/30 09:56:38;;;;;;;5.70;1.60;;;;;;;20.27;57.43;97610.41;103568;1277;73581;-41
2023/10/30 09:59:05;;;;;;;6.20;1.40;;;;;;;20.28;57.30;97605.31;103478;1277;62247;-40
2023/10/30 10:01:32;;;;;;;5.00;1.20;;;;;;;20.30;57.22;97607.36;103737;1277;62187;-41
2023/10/30 10:03:59;;;;;;;5.30;1.20;;;;;;;20.31;57.36;97601.80;103548;1280;76367;-41
2023/10/30 10:06:25;;;;;;;6.80;1.10;;;;;;;20.32;57.35;97601.14;103669;1280;65262;-37
2023/10/30 10:08:52;;;;;;;9.80;1.50;;;;;;;20.33;57.39;97602.46;104808;1276;72835;-40
2023/10/30 10:11:22;;;;;;;4.90;1.30;;;;;;;20.32;57.35;97593.36;103480;1285;62108;-42
2023/10/30 10:13:49;;;;;;;6.70;1.40;;;;;;;20.33;57.34;97600.44;105197;1276;62161;-40
2023/10/30 10:16:31;;;;;;;7.10;1.30;;;;;;;20.32;57.38;97599.25;104191;1277;75434;-41
2023/10/30 10:18:58;;;;;;;10.80;1.80;;;;;;;20.31;57.38;97598.23;103674;1276;67083;-41
2023/10/30 10:21:26;;;;;;;5.80;1.40;;;;;;;20.30;57.19;97595.55;103785;1277;72679;-40
2023/10/30 10:23:55;;;;;;;4.50;1.50;;;;;;;20.31;57.29;97587.36;103815;1277;62081;-38
2023/10/30 10:26:29;;;;;;;6.30;1.50;;;;;;;20.32;57.04;97579.75;105326;1276;61969;-42
2023/10/30 10:28:56;;;;;;;4.10;1.20;;;;;;;20.33;57.18;97584.51;106529;1276;76018;-42
2023/10/30 10:31:24;;;;;;;4.40;1.20;;;;;;;20.32;57.30;97579.66;106405;1282;65984;-41
2023/10/30 10:33:53;;;;;;;4.70;1.20;;;;;;;20.32;57.26;97576.95;105514;1280;71268;-42
2023/10/30 10:36:21;;;;;;;4.90;1.10;;;;;;;20.32;57.25;97579.52;103756;1276;62326;-44
2023/10/30 10:39:06;;;;;;;4.90;1.30;;;;;;;20.32;57.38;97581.06;103656;1276;62074;-40
2023/10/30 10:41:39;;;;;;;5.10;1.20;;;;;;;20.33;57.11;97579.61;103543;1277;77666;-43
2023/10/30 10:44:06;;;;;;;3.50;1.20;;;;;;;20.35;57.18;97580.56;104219;1283;66524;-43
2023/10/30 10:46:33;;;;;;;4.00;1.30;;;;;;;20.36;57.46;97576.15;103917;1280;71685;-40
2023/10/30 10:49:05;;;;;;;4.40;1.20;;;;;;;20.35;57.35;97576.38;103825;1277;63057;-42
2023/10/30 10:51:37;;;;;;;4.90;1.10;;;;;;;20.34;57.42;97579.55;103888;1277;62138;-39
2023/10/30 10:54:21;;;;;;;3.30;1.10;;;;;;;20.34;57.30;97579.92;103910;1277;75279;-37
2023/10/30 11:01:55;;;;;;;2.90;1.20;;;;;;;20.34;57.55;97574.44;103817;1281;71226;-39
2023/10/30 11:04:22;;;;;;;3.30;1.20;;;;;;;20.33;57.59;97571.83;103807;1277;62137;-42
2023/10/30 11:06:53;;;;;;;9.00;1.30;;;;;;;20.32;57.49;97570.58;107396;1276;59787;-39
2023/10/30 11:09:24;;;;;;;1.90;0.90;;;;;;;20.33;57.60;97573.86;103691;1277;74069;-39
2023/10/30 11:12:19;;;;;;;2.70;1.20;;;;;;;20.34;57.61;97572.64;105138;1276;65068;-39
2023/10/30 11:15:03;;;;;;;1.70;1.00;;;;;;;20.34;57.85;97571.48;105307;1277;73206;-38
2023/10/30 11:17:31;;;;;;;;;;;;;;;20.34;57.77;97569.14;104386;1277;62152;-41
2023/10/30 11:20:08;;;;;;;5.50;1.10;;;;;;;20.34;57.78;97573.18;103828;1277;62191;-40
2023/10/30 11:22:40;;;;;;;1.60;0.90;;;;;;;20.34;57.84;97571.78;103957;1276;75535;-40
2023/10/30 11:25:36;;;;;;;2.80;1.00;;;;;;;20.36;57.82;97573.20;103818;1277;66429;-42
2023/10/30 11:28:03;;;;;;;3.00;1.10;;;;;;;20.37;57.69;97578.65;103459;1277;73609;-41
2023/10/30 11:30:32;;;;;;;4.20;1.10;;;;;;;20.37;57.63;97574.63;103533;1276;62082;-41
2023/10/30 11:38:05;;;;;;;3.40;1.00;;;;;;;20.37;57.54;97575.48;103786;1278;76907;-40
2023/10/30 11:40:51;;;;;;;7.10;1.20;;;;;;;20.36;57.35;97573.69;105316;1279;66280;-43
2023/10/30 11:43:18;;;;;;;4.40;1.30;;;;;;;20.36;57.37;97575.08;103424;1278;73914;-41